createdAt,value
2023-04-05T00:01:40.850Z,64.70
2023-04-05T00:04:10.103Z,64.30
2023-04-05T00:06:39.978Z,64.55
2023-04-05T00:09:08.105Z,64.04
2023-04-05T00:11:36.274Z,64.64
2023-04-05T00:14:05.570Z,64.96
2023-04-05T00:16:34.699Z,64.62
2023-04-05T00:19:07.893Z,64.21
2023-04-05T00:21:38.106Z,64.88
2023-04-05T00:24:07.505Z,63.96
2023-04-05T00:26:37.227Z,65.51
2023-04-05T00:29:06.289Z,64.77
2023-04-05T00:31:34.466Z,65.29
2023-04-05T00:34:06.003Z,65.15
2023-04-05T00:36:34.187Z,65.13
2023-04-05T00:39:02.359Z,65.43
2023-04-05T00:41:30.949Z,64.70
2023-04-05T00:43:59.868Z,64.24
2023-04-05T00:46:29.670Z,65.35
2023-04-05T00:48:58.006Z,65.45
2023-04-05T00:51:27.570Z,64.75
2023-04-05T00:53:57.096Z,64.28
2023-04-05T00:56:26.056Z,65.15
2023-04-05T00:58:54.229Z,65.43
2023-04-05T01:01:25.062Z,64.48
2023-04-05T01:03:55.482Z,64.75
2023-04-05T01:06:39.026Z,65.67
2023-04-05T01:09:23.445Z,65.36
2023-04-05T01:11:54.029Z,65.76
2023-04-05T01:14:23.219Z,65.07
2023-04-05T01:16:58.099Z,65.64
2023-04-05T01:19:29.945Z,65.98
2023-04-05T01:22:41.243Z,65.12
2023-04-05T01:25:32.796Z,66.53
2023-04-05T01:28:30.951Z,66.36
2023-04-05T01:31:08.968Z,65.72
2023-04-05T01:33:48.886Z,65.99
2023-04-05T01:36:27.232Z,65.56
2023-04-05T01:38:56.059Z,64.95
2023-04-05T01:41:26.159Z,64.75
2023-04-05T01:43:54.355Z,65.56
2023-04-05T01:46:24.465Z,64.68
2023-04-05T01:48:52.690Z,65.32
2023-04-05T01:51:21.209Z,65.33
2023-04-05T01:53:49.453Z,65.30
2023-04-05T01:56:18.014Z,65.18
2023-04-05T01:58:46.320Z,65.48
2023-04-05T02:01:14.561Z,65.49
2023-04-05T02:03:56.286Z,65.53
2023-04-05T02:06:24.585Z,66.32
2023-04-05T02:08:52.796Z,66.22
2023-04-05T02:11:21.089Z,65.99
2023-04-05T02:13:49.276Z,66.25
2023-04-05T02:16:18.517Z,66.52
2023-04-05T02:18:50.718Z,65.61
2023-04-05T02:21:21.819Z,66.56
2023-04-05T02:23:50.017Z,67.11
2023-04-05T02:26:19.291Z,66.81
2023-04-05T02:28:47.878Z,65.89
2023-04-05T02:31:16.208Z,66.64
2023-04-05T02:33:44.555Z,66.38
2023-04-05T02:36:14.276Z,67.31
2023-04-05T02:38:44.048Z,66.76
2023-04-05T02:41:12.729Z,67.24
2023-04-05T02:43:41.151Z,68.29
2023-04-05T02:46:09.385Z,67.54
2023-04-05T02:48:41.935Z,66.69
2023-04-05T02:51:11.587Z,68.04
2023-04-05T02:53:44.943Z,67.87
2023-04-05T02:56:15.836Z,68.38
2023-04-05T02:58:48.857Z,68.21
2023-04-05T03:01:20.567Z,67.84
2023-04-05T03:03:48.884Z,68.46
2023-04-05T03:06:17.681Z,68.61
2023-04-05T03:08:51.811Z,68.03
2023-04-05T03:11:24.103Z,68.27
2023-04-05T03:13:56.895Z,68.49
2023-04-05T03:16:35.900Z,68.75
2023-04-05T03:19:11.686Z,69.90
2023-04-05T03:21:46.345Z,70.62
2023-04-05T03:24:37.391Z,70.68
2023-04-05T03:27:08.919Z,70.24
2023-04-05T03:29:55.128Z,71.45
2023-04-05T03:32:23.516Z,70.99
2023-04-05T03:34:59.404Z,71.39
2023-04-05T03:37:28.078Z,70.80
2023-04-05T03:40:06.810Z,72.37
2023-04-05T03:42:36.362Z,71.05
2023-04-05T03:45:06.114Z,71.81
2023-04-05T03:47:34.876Z,71.39
2023-04-05T03:50:10.431Z,71.37
2023-04-05T03:52:38.600Z,72.21
2023-04-05T03:55:09.801Z,71.78
2023-04-05T03:57:39.680Z,72.24
2023-04-05T04:00:23.849Z,71.57
2023-04-05T04:03:10.685Z,71.93
2023-04-05T04:05:43.264Z,71.20
2023-04-05T04:08:13.690Z,72.60
2023-04-05T04:10:43.498Z,72.41
2023-04-05T04:13:22.256Z,70.60
2023-04-05T04:16:08.167Z,71.16
2023-04-05T04:18:47.836Z,72.08
2023-04-05T04:21:25.539Z,72.37
2023-04-05T04:24:02.485Z,70.76
2023-04-05T04:27:03.921Z,70.94
2023-04-05T04:29:56.631Z,71.77
2023-04-05T04:32:58.069Z,73.94
2023-04-05T04:35:39.125Z,73.12
2023-04-05T04:38:26.751Z,74.02
2023-04-05T04:41:15.238Z,74.26
2023-04-05T04:44:06.131Z,74.34
2023-04-05T04:47:01.488Z,74.37
2023-04-05T04:49:47.240Z,73.71
2023-04-05T04:52:15.568Z,75.11
2023-04-05T04:54:43.766Z,74.06
2023-04-05T04:57:11.986Z,75.69
2023-04-05T04:59:48.015Z,75.18
2023-04-05T05:02:16.537Z,75.96
2023-04-05T05:04:44.749Z,74.67
2023-04-05T05:07:12.907Z,75.21
2023-04-05T05:09:41.092Z,74.89
2023-04-05T05:12:09.380Z,75.49
2023-04-05T05:14:37.594Z,75.91
2023-04-05T05:17:08.779Z,74.79
2023-04-05T05:19:37.056Z,75.79
2023-04-05T05:22:06.581Z,74.09
2023-04-05T05:24:34.756Z,74.82
2023-04-05T05:27:03.015Z,75.77
2023-04-05T05:29:31.720Z,75.42
2023-04-05T05:32:00.222Z,75.42
2023-04-05T05:34:29.896Z,76.54
2023-04-05T05:36:59.884Z,75.42
2023-04-05T05:39:28.306Z,77.17
2023-04-05T05:41:56.556Z,77.09
2023-04-05T05:44:24.758Z,76.26
2023-04-05T05:46:54.052Z,75.80
2023-04-05T05:49:23.686Z,76.74
2023-04-05T05:51:53.737Z,75.53
2023-04-05T05:54:22.140Z,75.30
2023-04-05T05:56:50.461Z,75.46
2023-04-05T05:59:18.758Z,75.89
2023-04-05T06:01:47.540Z,75.29
2023-04-05T06:04:16.552Z,75.41
2023-04-05T06:06:54.596Z,75.00
2023-04-05T06:09:23.377Z,75.21
2023-04-05T06:11:56.251Z,75.02
2023-04-05T06:14:25.796Z,76.34
2023-04-05T06:16:54.306Z,75.22
2023-04-05T06:19:22.541Z,75.65
2023-04-05T06:21:50.875Z,75.55
2023-04-05T06:24:21.001Z,74.91
2023-04-05T06:26:49.173Z,74.29
2023-04-05T06:29:17.371Z,75.34
2023-04-05T06:31:46.615Z,74.40
2023-04-05T06:34:15.513Z,72.12
2023-04-05T06:36:43.810Z,72.57
2023-04-05T06:39:11.974Z,71.44
2023-04-05T06:41:41.864Z,69.95
2023-04-05T06:44:10.069Z,69.65
2023-04-05T06:46:38.215Z,69.95
2023-04-05T06:49:06.435Z,69.78
2023-04-05T06:51:34.591Z,69.14
2023-04-05T06:54:02.764Z,68.92
2023-04-05T06:56:31.244Z,68.38
2023-04-05T06:59:07.033Z,68.72
2023-04-05T07:01:35.859Z,68.88
2023-04-05T07:04:04.354Z,68.75
2023-04-05T07:06:34.563Z,67.05
2023-04-05T07:09:03.995Z,65.75
2023-04-05T07:11:32.883Z,65.91
2023-04-05T07:14:02.499Z,64.83
2023-04-05T07:16:30.808Z,64.69
2023-04-05T07:18:59.049Z,64.96
2023-04-05T07:21:27.227Z,62.82
2023-04-05T07:24:00.698Z,61.84
2023-04-05T07:26:29.319Z,61.59
2023-04-05T07:28:57.493Z,61.23
2023-04-05T07:31:27.395Z,59.25
2023-04-05T07:33:55.986Z,58.10
2023-04-05T07:36:24.526Z,58.17
2023-04-05T07:38:52.875Z,58.81
2023-04-05T07:41:21.350Z,57.15
2023-04-05T07:43:50.008Z,57.43
2023-04-05T07:46:18.451Z,58.13
2023-04-05T07:48:49.587Z,59.18
2023-04-05T07:51:17.910Z,58.07
2023-04-05T07:53:46.323Z,57.74
2023-04-05T07:56:15.319Z,56.45
2023-04-05T07:58:43.947Z,57.92
2023-04-05T08:01:12.801Z,55.27
2023-04-05T08:03:41.359Z,55.51
2023-04-05T08:06:17.646Z,55.38
2023-04-05T08:08:46.256Z,55.04
2023-04-05T08:11:14.695Z,53.96
2023-04-05T08:13:43.992Z,53.56
2023-04-05T08:16:13.204Z,53.54
2023-04-05T08:18:41.436Z,52.72
2023-04-05T08:21:09.659Z,52.24
2023-04-05T08:23:39.227Z,51.99
2023-04-05T08:26:07.809Z,50.90
2023-04-05T08:28:36.388Z,50.97
2023-04-05T08:31:04.710Z,50.13
2023-04-05T08:33:32.962Z,50.27
2023-04-05T08:36:06.319Z,48.69
2023-04-05T08:38:34.598Z,49.39
2023-04-05T08:41:15.660Z,49.57
2023-04-05T08:43:57.294Z,49.56
2023-04-05T08:46:27.063Z,49.18
2023-04-05T08:48:56.276Z,48.40
2023-04-05T08:51:26.902Z,47.28
2023-04-05T08:53:55.698Z,46.58
2023-04-05T08:56:28.500Z,48.29
2023-04-05T08:59:03.955Z,48.89
2023-04-05T09:01:34.557Z,48.63
2023-04-05T09:04:07.240Z,47.93
2023-04-05T09:06:37.203Z,47.80
2023-04-05T09:09:09.146Z,48.35
2023-04-05T09:11:39.674Z,47.93
2023-04-05T09:14:08.709Z,48.36
2023-04-05T09:16:40.224Z,47.53
2023-04-05T09:19:09.973Z,47.41
2023-04-05T09:21:59.163Z,47.30
2023-04-05T09:24:40.827Z,47.24
2023-04-05T09:27:12.135Z,48.34
2023-04-05T09:29:42.609Z,47.51
2023-04-05T09:32:13.194Z,46.00
2023-04-05T09:34:42.933Z,48.59
2023-04-05T09:37:22.514Z,48.13
2023-04-05T09:39:52.559Z,49.38
2023-04-05T09:42:24.114Z,47.34
2023-04-05T09:44:54.534Z,46.18
2023-04-05T09:47:25.850Z,49.26
2023-04-05T09:49:58.598Z,48.38
2023-04-05T09:52:29.142Z,45.16
2023-04-05T09:54:59.926Z,46.69
2023-04-05T09:57:30.644Z,46.76
2023-04-05T09:59:59.068Z,46.05
2023-04-05T10:02:37.895Z,44.32
2023-04-05T10:05:11.621Z,48.86
2023-04-05T10:07:40.793Z,47.37
2023-04-05T10:10:12.245Z,47.26
2023-04-05T10:12:43.110Z,47.51
2023-04-05T10:15:14.174Z,48.00
2023-04-05T10:17:51.410Z,46.60
2023-04-05T10:20:21.543Z,48.29
2023-04-05T10:23:02.824Z,46.81
2023-04-05T10:25:52.596Z,44.40
2023-04-05T10:28:31.818Z,46.28
2023-04-05T10:31:14.164Z,45.65
2023-04-05T10:33:47.624Z,46.72
2023-04-05T10:36:27.013Z,44.15
2023-04-05T10:39:04.818Z,45.22
2023-04-05T10:41:38.028Z,43.99
2023-04-05T10:44:24.833Z,44.50
2023-04-05T10:46:55.863Z,44.25
2023-04-05T10:49:35.323Z,40.94
2023-04-05T10:52:04.428Z,40.87
2023-04-05T10:54:36.979Z,40.90
2023-04-05T10:57:09.636Z,44.64
2023-04-05T10:59:44.372Z,43.40
2023-04-05T11:02:13.343Z,42.38
2023-04-05T11:04:42.700Z,44.42
2023-04-05T11:07:16.867Z,44.79
2023-04-05T11:09:58.253Z,44.10
2023-04-05T11:13:08.834Z,43.19
2023-04-05T11:15:39.917Z,41.16
2023-04-05T11:18:11.425Z,42.29
2023-04-05T11:20:45.219Z,41.94
2023-04-05T11:23:16.027Z,39.90
2023-04-05T11:25:51.671Z,40.30
2023-04-05T11:28:30.064Z,44.05
2023-04-05T11:31:13.544Z,45.27
2023-04-05T11:33:59.493Z,46.29
2023-04-05T11:36:33.842Z,45.33
2023-04-05T11:39:30.556Z,44.28
2023-04-05T11:42:02.813Z,43.87
2023-04-05T11:44:41.246Z,41.24
2023-04-05T11:47:11.916Z,41.58
2023-04-05T11:49:40.603Z,38.62
2023-04-05T11:52:14.856Z,40.39
2023-04-05T11:54:47.112Z,39.61
2023-04-05T11:57:19.742Z,39.81
2023-04-05T11:59:47.994Z,41.01
2023-04-05T12:02:17.842Z,39.69
2023-04-05T12:04:49.711Z,41.76
2023-04-05T12:07:19.864Z,41.34
2023-04-05T12:10:09.852Z,41.19
2023-04-05T12:12:40.503Z,40.65
2023-04-05T12:15:13.433Z,39.37
2023-04-05T12:17:49.251Z,39.42
2023-04-05T12:20:20.560Z,41.16
2023-04-05T12:22:50.631Z,37.23
2023-04-05T12:25:20.507Z,39.13
2023-04-05T12:27:49.303Z,40.60
2023-04-05T12:30:19.324Z,36.72
2023-04-05T12:32:52.149Z,37.18
2023-04-05T12:35:24.377Z,40.02
2023-04-05T12:37:53.091Z,41.86
2023-04-05T12:40:24.435Z,37.32
2023-04-05T12:42:53.017Z,38.63
2023-04-05T12:45:25.034Z,35.75
2023-04-05T12:47:58.468Z,36.49
2023-04-05T12:50:29.245Z,38.00
2023-04-05T12:52:59.986Z,37.18
2023-04-05T12:55:29.982Z,34.57
2023-04-05T12:58:01.399Z,36.62
2023-04-05T13:00:31.470Z,38.32
2023-04-05T13:03:01.389Z,38.11
2023-04-05T13:05:31.299Z,38.08
2023-04-05T13:07:59.952Z,37.72
2023-04-05T13:10:28.481Z,38.66
2023-04-05T13:12:57.006Z,38.90
2023-04-05T13:15:25.308Z,38.23
2023-04-05T13:17:55.074Z,35.15
2023-04-05T13:20:24.893Z,35.26
2023-04-05T13:22:53.163Z,35.26
2023-04-05T13:25:21.372Z,36.44
2023-04-05T13:27:49.844Z,36.64
2023-04-05T13:30:18.580Z,38.46
2023-04-05T13:32:47.032Z,35.80
2023-04-05T13:35:16.111Z,35.98
2023-04-05T13:37:45.999Z,35.34
2023-04-05T13:40:14.296Z,37.83
2023-04-05T13:42:42.598Z,38.75
2023-04-05T13:45:12.141Z,34.92
2023-04-05T13:47:40.425Z,34.63
2023-04-05T13:50:09.865Z,34.74
2023-04-05T13:52:38.506Z,35.20
2023-04-05T13:55:09.062Z,35.28
2023-04-05T13:57:37.441Z,34.69
2023-04-05T14:00:08.109Z,35.14
2023-04-05T14:02:43.012Z,37.66
2023-04-05T14:05:11.519Z,38.89
2023-04-05T14:07:40.416Z,38.94
2023-04-05T14:10:12.277Z,38.82
2023-04-05T14:12:40.683Z,38.29
2023-04-05T14:15:09.801Z,37.25
2023-04-05T14:17:38.009Z,36.22
2023-04-05T14:20:08.173Z,35.19
2023-04-05T14:22:36.351Z,38.17
2023-04-05T14:25:04.959Z,38.13
2023-04-05T14:27:35.968Z,38.21
2023-04-05T14:30:04.650Z,37.91
2023-04-05T14:32:33.865Z,38.19
2023-04-05T14:35:02.440Z,37.02
2023-04-05T14:37:30.630Z,37.38
2023-04-05T14:39:58.791Z,36.53
2023-04-05T14:42:37.216Z,37.11
2023-04-05T14:45:15.283Z,37.22
2023-04-05T14:47:43.546Z,35.41
2023-04-05T14:50:12.383Z,36.78
2023-04-05T14:52:40.926Z,37.07
2023-04-05T14:55:12.395Z,36.70
2023-04-05T14:57:41.454Z,37.23
2023-04-05T15:00:11.964Z,35.64
2023-04-05T15:02:42.141Z,35.95
2023-04-05T15:05:11.296Z,35.17
2023-04-05T15:07:39.691Z,35.80
2023-04-05T15:10:08.895Z,35.12
2023-04-05T15:12:37.171Z,35.75
2023-04-05T15:15:07.194Z,34.42
2023-04-05T15:17:35.494Z,34.79
2023-04-05T15:20:05.968Z,35.73
2023-04-05T15:22:35.914Z,36.26
2023-04-05T15:25:04.653Z,35.48
2023-04-05T15:27:32.918Z,36.12
2023-04-05T15:30:01.130Z,35.66
2023-04-05T15:32:33.536Z,35.62
2023-04-05T15:35:02.066Z,35.64
2023-04-05T15:37:31.669Z,36.29
2023-04-05T15:40:10.312Z,37.15
2023-04-05T15:42:38.619Z,38.14
2023-04-05T15:45:08.559Z,37.81
2023-04-05T15:47:37.058Z,37.66
2023-04-05T15:50:06.321Z,37.90
2023-04-05T15:52:36.281Z,37.38
2023-04-05T15:55:05.752Z,37.44
2023-04-05T15:57:35.288Z,37.44
2023-04-05T16:00:03.982Z,36.73
2023-04-05T16:02:38.440Z,36.05
2023-04-05T16:05:07.489Z,35.40
2023-04-05T16:07:35.828Z,35.07
2023-04-05T16:10:04.436Z,34.02
2023-04-05T16:12:34.050Z,33.97
2023-04-05T16:15:02.414Z,34.57
2023-04-05T16:17:30.849Z,34.15
2023-04-05T16:19:59.147Z,34.03
2023-04-05T16:22:28.537Z,34.94
2023-04-05T16:24:56.718Z,35.52
2023-04-05T16:27:24.927Z,35.46
2023-04-05T16:29:54.556Z,36.20
2023-04-05T16:32:23.174Z,36.35
2023-04-05T16:34:51.726Z,34.75
2023-04-05T16:37:20.823Z,37.09
2023-04-05T16:39:49.239Z,37.67
2023-04-05T16:42:17.370Z,37.42
2023-04-05T16:44:45.510Z,37.42
2023-04-05T16:47:15.051Z,37.28
2023-04-05T16:49:43.336Z,38.10
2023-04-05T16:52:11.540Z,37.38
2023-04-05T16:54:39.748Z,38.71
2023-04-05T16:57:07.931Z,39.70
2023-04-05T16:59:36.171Z,39.59
2023-04-05T17:02:04.467Z,38.86
2023-04-05T17:04:34.645Z,38.90
2023-04-05T17:07:04.461Z,38.99
2023-04-05T17:09:33.294Z,39.66
2023-04-05T17:12:01.496Z,41.78
2023-04-05T17:14:29.649Z,41.87
2023-04-05T17:16:58.017Z,42.10
2023-04-05T17:19:26.525Z,40.76
2023-04-05T17:21:56.217Z,41.75
2023-04-05T17:24:26.695Z,42.43
2023-04-05T17:26:54.921Z,43.51
2023-04-05T17:29:23.088Z,44.00
2023-04-05T17:31:52.116Z,44.97
2023-04-05T17:34:20.340Z,46.02
2023-04-05T17:36:48.462Z,46.56
2023-04-05T17:39:18.197Z,47.04
2023-04-05T17:41:46.681Z,46.29
2023-04-05T17:44:16.550Z,47.20
2023-04-05T17:46:51.036Z,47.61
2023-04-05T17:49:25.904Z,47.33
2023-04-05T17:51:54.074Z,48.22
2023-04-05T17:54:23.629Z,47.27
2023-04-05T17:56:52.028Z,48.18
2023-04-05T17:59:20.249Z,49.22
2023-04-05T18:01:53.499Z,50.89
2023-04-05T18:04:38.654Z,52.17
2023-04-05T18:07:07.529Z,51.86
2023-04-05T18:09:38.425Z,51.38
2023-04-05T18:12:06.906Z,50.40
2023-04-05T18:14:36.221Z,48.46
2023-04-05T18:17:06.895Z,47.64
2023-04-05T18:19:35.163Z,46.29
2023-04-05T18:22:03.486Z,46.64
2023-04-05T18:24:31.739Z,46.80
2023-04-05T18:27:02.091Z,47.51
2023-04-05T18:29:30.794Z,50.91
2023-04-05T18:31:59.232Z,52.49
2023-04-05T18:34:27.490Z,52.62
2023-04-05T18:36:55.677Z,53.00
2023-04-05T18:39:26.224Z,53.21
2023-04-05T18:41:55.888Z,53.55
2023-04-05T18:44:26.072Z,53.65
2023-04-05T18:46:54.644Z,54.87
2023-04-05T18:49:23.026Z,54.55
2023-04-05T18:51:51.275Z,54.05
2023-04-05T18:54:20.288Z,52.87
2023-04-05T18:56:48.473Z,53.72
2023-04-05T18:59:17.442Z,53.89
2023-04-05T19:01:47.202Z,53.69
2023-04-05T19:04:16.335Z,54.00
2023-04-05T19:06:44.703Z,54.68
2023-04-05T19:09:12.935Z,55.42
2023-04-05T19:11:41.118Z,55.03
2023-04-05T19:14:09.295Z,54.48
2023-04-05T19:16:37.571Z,54.20
2023-04-05T19:19:07.494Z,55.42
2023-04-05T19:21:36.183Z,54.91
2023-04-05T19:24:05.316Z,53.77
2023-04-05T19:26:33.712Z,53.15
2023-04-05T19:29:01.923Z,53.95
2023-04-05T19:31:30.700Z,54.05
2023-04-05T19:33:59.608Z,54.03
2023-04-05T19:36:29.277Z,53.98
2023-04-05T19:38:57.857Z,55.06
2023-04-05T19:41:26.196Z,54.74
2023-04-05T19:43:54.312Z,55.30
2023-04-05T19:46:31.006Z,55.44
2023-04-05T19:49:11.540Z,55.68
2023-04-05T19:51:42.660Z,55.73
2023-04-05T19:54:14.722Z,56.61
2023-04-05T19:56:43.108Z,56.90
2023-04-05T19:59:30.631Z,57.40
2023-04-05T20:02:00.049Z,57.14
2023-04-05T20:04:34.447Z,57.71
2023-04-05T20:07:04.459Z,57.11
2023-04-05T20:09:34.386Z,57.42
2023-04-05T20:12:05.648Z,57.61
2023-04-05T20:14:42.569Z,57.42
2023-04-05T20:17:12.372Z,57.87
2023-04-05T20:19:42.484Z,57.58
2023-04-05T20:22:12.492Z,58.03
2023-04-05T20:24:40.998Z,59.30
2023-04-05T20:27:11.198Z,59.19
2023-04-05T20:29:39.431Z,60.59
2023-04-05T20:32:07.787Z,59.99
2023-04-05T20:34:37.994Z,60.32
2023-04-05T20:37:11.198Z,60.25
2023-04-05T20:39:40.802Z,59.46
2023-04-05T20:42:09.911Z,60.23
2023-04-05T20:44:38.175Z,60.00
2023-04-05T20:47:06.522Z,58.87
2023-04-05T20:49:34.727Z,60.06
2023-04-05T20:52:07.533Z,60.45
2023-04-05T20:54:35.834Z,59.18
2023-04-05T20:57:05.505Z,60.15
2023-04-05T20:59:33.764Z,61.56
2023-04-05T21:02:02.014Z,61.02
2023-04-05T21:04:30.817Z,61.27
2023-04-05T21:06:58.934Z,61.71
2023-04-05T21:09:27.833Z,62.75
2023-04-05T21:11:55.957Z,60.72
2023-04-05T21:14:26.582Z,62.09
2023-04-05T21:16:54.720Z,61.29
2023-04-05T21:19:22.872Z,62.40
2023-04-05T21:21:51.181Z,62.91
2023-04-05T21:24:19.310Z,63.76
2023-04-05T21:26:47.522Z,63.80
2023-04-05T21:29:15.943Z,63.69
2023-04-05T21:31:45.616Z,63.74
2023-04-05T21:34:13.860Z,64.53
2023-04-05T21:36:42.041Z,63.76
2023-04-05T21:39:10.404Z,65.22
2023-04-05T21:41:38.840Z,65.75
2023-04-05T21:44:07.298Z,65.80
2023-04-05T21:46:35.673Z,65.41
2023-04-05T21:49:05.383Z,65.86
2023-04-05T21:51:33.783Z,65.46
2023-04-05T21:54:02.025Z,65.93
2023-04-05T21:56:30.195Z,66.45
2023-04-05T21:58:58.400Z,66.30
2023-04-05T22:01:26.735Z,66.93
2023-04-05T22:03:58.225Z,67.01
2023-04-05T22:06:27.819Z,67.59
2023-04-05T22:08:56.115Z,67.34
2023-04-05T22:11:25.019Z,66.85
2023-04-05T22:13:53.773Z,67.27
2023-04-05T22:16:22.107Z,66.91
2023-04-05T22:18:50.309Z,67.16
2023-04-05T22:21:18.522Z,66.87
2023-04-05T22:23:48.219Z,67.12
2023-04-05T22:26:16.375Z,67.30
2023-04-05T22:28:44.641Z,67.21
2023-04-05T22:31:14.693Z,67.62
2023-04-05T22:33:42.978Z,67.48
2023-04-05T22:36:11.380Z,68.28
2023-04-05T22:38:39.748Z,68.64
2023-04-05T22:41:09.512Z,68.48
2023-04-05T22:43:39.775Z,67.98
2023-04-05T22:46:08.212Z,67.61
2023-04-05T22:48:36.419Z,68.02
2023-04-05T22:51:04.908Z,68.37
2023-04-05T22:53:33.384Z,67.54
2023-04-05T22:56:01.573Z,68.51
2023-04-05T22:58:32.818Z,68.89
2023-04-05T23:01:02.434Z,68.50
2023-04-05T23:03:30.794Z,68.26
2023-04-05T23:05:58.966Z,69.14
2023-04-05T23:08:27.484Z,69.11
2023-04-05T23:10:55.888Z,69.14
2023-04-05T23:13:24.111Z,69.14
2023-04-05T23:15:53.879Z,69.28
2023-04-05T23:18:23.033Z,69.98
2023-04-05T23:20:51.692Z,70.34
2023-04-05T23:23:21.009Z,70.13
2023-04-05T23:25:49.293Z,70.91
2023-04-05T23:28:17.539Z,71.36
2023-04-05T23:30:45.747Z,70.51
2023-04-05T23:33:15.553Z,70.60
2023-04-05T23:35:43.855Z,70.31
2023-04-05T23:38:12.336Z,70.38
2023-04-05T23:40:40.822Z,71.41
2023-04-05T23:43:09.051Z,71.58
2023-04-05T23:45:37.264Z,71.93
2023-04-05T23:48:06.088Z,72.28
2023-04-05T23:50:35.676Z,71.70
2023-04-05T23:53:03.919Z,72.13
2023-04-05T23:55:32.924Z,71.25
2023-04-05T23:58:01.447Z,72.67
